Terminal Aerodrome Forecast
Issued by NWS

Current Version | Previous Version | Text Only | Print | Product List | Glossary On
Versions: 1 2 3 4 5 6 7 8 9 10 11 12 13
133
FTUS42 KMLB 271124
TAFFPR
TAF
KFPR 271124Z 2712/2812 VRB04KT P6SM FEW250
     FM271400 13008KT P6SM SCT025 SCT250
     FM271700 12011KT P6SM VCTS SCT040CB
     FM272100 13011KT P6SM SCT040
     FM280100 15006KT P6SM FEW250=

USA.gov is the U.S. government's official web portal to all federal, state and local government web resources and services.